createdAt,value
2022-10-11T00:01:04.829Z,84.87
2022-10-11T00:04:06.449Z,85.15
2022-10-11T00:07:08.007Z,85.52
2022-10-11T00:10:09.853Z,85.08
2022-10-11T00:13:11.442Z,85.57
2022-10-11T00:16:14.261Z,85.54
2022-10-11T00:19:15.961Z,87.39
2022-10-11T00:22:17.541Z,88.60
2022-10-11T00:25:19.155Z,86.47
2022-10-11T00:28:20.773Z,85.61
2022-10-11T00:31:22.424Z,85.43
2022-10-11T00:34:24.078Z,85.38
2022-10-11T00:37:25.651Z,86.10
2022-10-11T00:40:27.191Z,86.29
2022-10-11T00:43:29.491Z,86.54
2022-10-11T00:46:31.374Z,86.78
2022-10-11T00:49:37.172Z,86.63
2022-10-11T00:52:40.442Z,87.05
2022-10-11T00:55:44.408Z,87.86
2022-10-11T00:58:45.966Z,88.64
2022-10-11T01:01:47.599Z,89.04
2022-10-11T01:05:01.016Z,89.34
2022-10-11T01:08:11.221Z,89.96
2022-10-11T01:11:13.582Z,90.26
2022-10-11T01:14:26.248Z,90.50
2022-10-11T01:17:27.775Z,90.67
2022-10-11T01:20:35.254Z,90.95
2022-10-11T01:23:43.001Z,91.55
2022-10-11T01:26:57.113Z,91.88
2022-10-11T01:30:14.114Z,92.42
2022-10-11T01:33:18.882Z,93.03
2022-10-11T01:36:41.749Z,94.46
2022-10-11T01:39:47.328Z,94.69
2022-10-11T01:42:48.843Z,94.88
2022-10-11T01:45:51.149Z,94.86
2022-10-11T01:48:57.269Z,95.49
2022-10-11T01:52:00.061Z,95.14
2022-10-11T01:55:37.251Z,95.41
2022-10-11T01:58:59.265Z,96.24
2022-10-11T02:02:20.565Z,96.76
2022-10-11T02:05:40.614Z,97.30
2022-10-11T02:08:53.912Z,96.96
2022-10-11T02:11:56.469Z,96.63
2022-10-11T02:14:58.138Z,96.36
2022-10-11T02:18:01.118Z,96.27
2022-10-11T02:21:04.018Z,96.75
2022-10-11T02:24:10.107Z,97.04
2022-10-11T02:27:11.910Z,96.58
2022-10-11T02:30:13.614Z,96.29
2022-10-11T02:33:15.936Z,96.03
2022-10-11T02:36:21.914Z,96.45
2022-10-11T02:39:29.370Z,96.95
2022-10-11T02:42:33.974Z,97.32
2022-10-11T02:45:36.470Z,97.69
2022-10-11T02:48:38.037Z,97.60
2022-10-11T02:51:39.653Z,97.61
2022-10-11T02:54:41.185Z,97.30
2022-10-11T02:57:42.782Z,96.79
2022-10-11T03:00:44.348Z,96.54
2022-10-11T03:03:45.956Z,96.46
2022-10-11T03:06:47.477Z,96.34
2022-10-11T03:09:49.045Z,96.09
2022-10-11T03:12:50.646Z,95.76
2022-10-11T03:16:07.189Z,95.47
2022-10-11T03:19:08.852Z,95.57
2022-10-11T03:22:10.378Z,96.03
2022-10-11T03:25:12.060Z,95.84
2022-10-11T03:28:13.704Z,97.23
2022-10-11T03:31:15.337Z,97.95
2022-10-11T03:34:16.893Z,99.20
2022-10-11T03:37:18.930Z,98.94
2022-10-11T03:40:20.567Z,97.99
2022-10-11T03:43:22.174Z,98.98
2022-10-11T03:46:23.750Z,99.33
2022-10-11T03:49:25.322Z,99.65
2022-10-11T03:52:26.846Z,99.78
2022-10-11T03:55:28.390Z,99.35
2022-10-11T03:58:29.917Z,99.17
2022-10-11T04:01:31.530Z,99.13
2022-10-11T04:04:33.198Z,99.71
2022-10-11T04:07:34.785Z,99.95
2022-10-11T04:10:36.609Z,99.49
2022-10-11T04:13:38.224Z,99.22
2022-10-11T04:16:40.208Z,99.12
2022-10-11T04:19:42.046Z,98.52
2022-10-11T04:22:43.604Z,99.39
2022-10-11T04:25:45.581Z,100.00
2022-10-11T04:28:47.199Z,99.85
2022-10-11T04:31:48.965Z,99.63
2022-10-11T04:34:51.348Z,99.67
2022-10-11T04:37:52.907Z,99.83
2022-10-11T04:40:54.477Z,99.87
2022-10-11T04:43:56.184Z,100.00
2022-10-11T04:46:57.818Z,100.00
2022-10-11T04:49:59.346Z,99.85
2022-10-11T04:53:00.918Z,100.00
2022-10-11T04:56:06.253Z,99.22
2022-10-11T04:59:07.962Z,98.85
2022-10-11T05:02:09.572Z,97.95
2022-10-11T05:05:11.395Z,98.90
2022-10-11T05:08:13.046Z,98.77
2022-10-11T05:11:16.253Z,98.89
2022-10-11T05:14:17.935Z,98.87
2022-10-11T05:17:19.540Z,98.84
2022-10-11T05:20:21.075Z,99.01
2022-10-11T05:23:22.588Z,99.24
2022-10-11T05:26:24.754Z,99.56
2022-10-11T05:29:26.483Z,99.67
2022-10-11T05:32:28.273Z,99.54
2022-10-11T05:35:29.890Z,99.02
2022-10-11T05:38:31.489Z,99.57
2022-10-11T05:41:33.078Z,100.00
2022-10-11T05:44:34.621Z,100.00
2022-10-11T05:47:36.129Z,99.99
2022-10-11T05:50:38.058Z,100.00
2022-10-11T05:53:39.639Z,99.67
2022-10-11T05:56:41.157Z,100.00
2022-10-11T05:59:42.765Z,100.00
2022-10-11T06:02:44.275Z,100.00
2022-10-11T06:05:45.774Z,99.62
2022-10-11T06:08:47.501Z,99.39
2022-10-11T06:11:48.989Z,99.27
2022-10-11T06:14:50.500Z,99.63
2022-10-11T06:17:52.908Z,99.68
2022-10-11T06:20:54.487Z,100.00
2022-10-11T06:24:01.130Z,100.00
2022-10-11T06:27:03.464Z,100.00
2022-10-11T06:30:05.524Z,100.00
2022-10-11T06:33:07.030Z,100.00
2022-10-11T06:36:10.486Z,100.00
2022-10-11T06:39:12.547Z,100.00
2022-10-11T06:42:14.159Z,100.00
2022-10-11T06:45:16.077Z,100.00
2022-10-11T06:48:17.682Z,100.00
2022-10-11T06:51:20.773Z,100.00
2022-10-11T06:54:22.312Z,100.00
2022-10-11T06:57:23.876Z,100.00
2022-10-11T07:00:25.402Z,100.00
2022-10-11T07:03:26.909Z,100.00
2022-10-11T07:06:28.884Z,100.00
2022-10-11T07:09:30.966Z,100.00
2022-10-11T07:12:32.619Z,100.00
2022-10-11T07:15:38.111Z,100.00
2022-10-11T07:18:40.070Z,100.00
2022-10-11T07:21:41.785Z,100.00
2022-10-11T07:24:43.421Z,100.00
2022-10-11T07:27:45.010Z,100.00
2022-10-11T07:30:46.593Z,100.00
2022-10-11T07:33:48.170Z,100.00
2022-10-11T07:36:49.778Z,99.87
2022-10-11T07:39:51.334Z,100.00
2022-10-11T07:42:52.929Z,100.00
2022-10-11T07:45:55.619Z,100.00
2022-10-11T07:48:57.350Z,100.00
2022-10-11T07:51:58.900Z,98.54
2022-10-11T07:55:00.518Z,97.63
2022-10-11T07:58:02.046Z,97.42
2022-10-11T08:01:03.729Z,97.60
2022-10-11T08:04:05.489Z,97.33
2022-10-11T08:07:07.088Z,96.70
2022-10-11T08:10:08.940Z,97.02
2022-10-11T08:13:10.514Z,96.79
2022-10-11T08:16:12.345Z,96.26
2022-10-11T08:19:13.946Z,95.62
2022-10-11T08:22:15.515Z,95.40
2022-10-11T08:25:17.164Z,94.97
2022-10-11T08:28:18.879Z,95.47
2022-10-11T08:31:20.654Z,94.57
2022-10-11T08:34:22.263Z,93.94
2022-10-11T08:37:23.848Z,94.40
2022-10-11T08:40:26.348Z,93.86
2022-10-11T08:43:46.755Z,91.85
2022-10-11T08:46:53.947Z,91.62
2022-10-11T08:49:58.905Z,91.24
2022-10-11T08:53:08.127Z,90.03
2022-10-11T08:56:10.621Z,89.32
2022-10-11T08:59:12.139Z,88.12
2022-10-11T09:02:55.605Z,87.28
2022-10-11T09:06:14.075Z,87.16
2022-10-11T09:09:34.166Z,86.73
2022-10-11T09:12:50.903Z,87.49
2022-10-11T09:15:56.994Z,84.05
2022-10-11T09:19:17.356Z,84.96
2022-10-11T09:22:48.028Z,85.18
2022-10-11T09:25:51.429Z,83.04
2022-10-11T09:29:01.134Z,83.22
2022-10-11T09:32:03.164Z,84.39
2022-10-11T09:35:12.269Z,81.89
2022-10-11T09:38:49.393Z,80.05
2022-10-11T09:42:05.434Z,80.37
2022-10-11T09:45:13.298Z,77.67
2022-10-11T09:48:19.495Z,78.36
2022-10-11T09:51:21.866Z,75.58
2022-10-11T09:54:37.084Z,73.44
2022-10-11T09:57:39.349Z,72.71
2022-10-11T10:00:40.931Z,73.98
2022-10-11T10:03:43.225Z,70.84
2022-10-11T10:06:44.933Z,69.84
2022-10-11T10:09:46.665Z,70.81
2022-10-11T10:12:53.157Z,69.08
2022-10-11T10:15:55.492Z,69.14
2022-10-11T10:18:58.444Z,69.40
2022-10-11T10:22:00.015Z,69.01
2022-10-11T10:25:02.508Z,69.59
2022-10-11T10:28:05.274Z,70.52
2022-10-11T10:31:11.269Z,70.19
2022-10-11T10:34:14.529Z,68.79
2022-10-11T10:37:18.696Z,68.70
2022-10-11T10:40:25.339Z,68.44
2022-10-11T10:43:28.149Z,65.95
2022-10-11T10:46:47.760Z,65.66
2022-10-11T10:49:55.430Z,67.20
2022-10-11T10:52:57.067Z,67.46
2022-10-11T10:56:05.365Z,63.62
2022-10-11T10:59:07.016Z,64.38
2022-10-11T11:02:38.616Z,64.02
2022-10-11T11:05:41.515Z,61.34
2022-10-11T11:08:52.354Z,62.76
2022-10-11T11:12:11.017Z,63.96
2022-10-11T11:15:19.848Z,64.36
2022-10-11T11:18:22.038Z,65.29
2022-10-11T11:21:41.494Z,65.79
2022-10-11T11:24:55.302Z,64.25
2022-10-11T11:28:17.580Z,62.25
2022-10-11T11:31:28.326Z,60.32
2022-10-11T11:34:33.037Z,57.00
2022-10-11T11:37:35.374Z,60.82
2022-10-11T11:40:38.473Z,61.44
2022-10-11T11:43:43.209Z,61.53
2022-10-11T11:46:46.551Z,60.92
2022-10-11T11:49:50.259Z,61.61
2022-10-11T11:52:53.180Z,60.87
2022-10-11T11:56:03.131Z,61.38
2022-10-11T11:59:20.595Z,62.35
2022-10-11T12:02:32.178Z,62.64
2022-10-11T12:05:34.246Z,61.80
2022-10-11T12:08:35.777Z,60.92
2022-10-11T12:11:37.292Z,61.09
2022-10-11T12:14:39.678Z,60.71
2022-10-11T12:17:53.534Z,61.85
2022-10-11T12:21:21.235Z,60.40
2022-10-11T12:24:23.888Z,58.98
2022-10-11T12:27:43.815Z,60.42
2022-10-11T12:30:48.361Z,60.72
2022-10-11T12:33:54.387Z,62.12
2022-10-11T12:36:56.110Z,63.71
2022-10-11T12:39:58.633Z,62.50
2022-10-11T12:43:11.262Z,64.28
2022-10-11T12:46:28.635Z,65.45
2022-10-11T12:49:51.053Z,65.86
2022-10-11T12:52:55.705Z,67.38
2022-10-11T12:55:57.268Z,66.18
2022-10-11T12:59:03.286Z,65.85
2022-10-11T13:02:16.659Z,67.14
2022-10-11T13:05:24.283Z,68.59
2022-10-11T13:08:25.857Z,68.51
2022-10-11T13:11:31.582Z,70.36
2022-10-11T13:14:46.360Z,70.54
2022-10-11T13:17:54.251Z,70.40
2022-10-11T13:20:55.858Z,71.10
2022-10-11T13:24:01.860Z,69.60
2022-10-11T13:27:03.616Z,70.29
2022-10-11T13:30:06.582Z,70.12
2022-10-11T13:33:11.255Z,71.10
2022-10-11T13:36:14.560Z,71.44
2022-10-11T13:39:35.594Z,70.39
2022-10-11T13:42:37.121Z,67.79
2022-10-11T13:45:39.279Z,69.74
2022-10-11T13:48:41.198Z,70.84
2022-10-11T13:51:42.715Z,70.75
2022-10-11T13:54:53.448Z,69.62
2022-10-11T13:57:55.110Z,70.26
2022-10-11T14:00:58.056Z,69.98
2022-10-11T14:04:00.338Z,68.77
2022-10-11T14:07:02.651Z,69.95
2022-10-11T14:10:05.408Z,70.01
2022-10-11T14:13:16.914Z,69.73
2022-10-11T14:16:18.653Z,70.72
2022-10-11T14:19:20.218Z,70.70
2022-10-11T14:22:21.808Z,70.79
2022-10-11T14:25:23.379Z,70.80
2022-10-11T14:28:25.007Z,71.24
2022-10-11T14:31:26.755Z,71.39
2022-10-11T14:34:28.391Z,70.96
2022-10-11T14:37:29.927Z,71.70
2022-10-11T14:40:31.924Z,72.02
2022-10-11T14:43:33.558Z,71.74
2022-10-11T14:46:39.009Z,71.92
2022-10-11T14:49:40.701Z,71.51
2022-10-11T14:52:42.313Z,71.03
2022-10-11T14:55:43.871Z,69.74
2022-10-11T14:58:45.421Z,69.88
2022-10-11T15:01:51.684Z,69.61
2022-10-11T15:04:53.698Z,70.02
2022-10-11T15:07:55.461Z,70.16
2022-10-11T15:10:57.195Z,70.91
2022-10-11T15:13:58.788Z,70.41
2022-10-11T15:17:00.339Z,70.17
2022-10-11T15:20:02.036Z,71.13
2022-10-11T15:23:04.532Z,71.01
2022-10-11T15:26:06.450Z,71.56
2022-10-11T15:29:10.537Z,73.22
2022-10-11T15:32:12.150Z,70.89
2022-10-11T15:35:14.038Z,72.78
2022-10-11T15:38:17.230Z,72.47
2022-10-11T15:41:19.966Z,72.95
2022-10-11T15:44:21.554Z,72.82
2022-10-11T15:47:23.131Z,72.69
2022-10-11T15:50:35.004Z,72.57
2022-10-11T15:53:36.604Z,70.60
2022-10-11T15:56:38.429Z,70.36
2022-10-11T15:59:40.221Z,70.71
2022-10-11T16:02:42.425Z,70.36
2022-10-11T16:05:44.176Z,71.51
2022-10-11T16:08:45.705Z,71.23
2022-10-11T16:11:47.238Z,70.53
2022-10-11T16:14:48.717Z,70.75
2022-10-11T16:17:50.248Z,71.21
2022-10-11T16:20:52.457Z,71.84
2022-10-11T16:23:53.965Z,71.60
2022-10-11T16:26:55.462Z,71.40
2022-10-11T16:29:57.304Z,71.85
2022-10-11T16:32:58.846Z,72.06
2022-10-11T16:36:20.709Z,72.57
2022-10-11T16:39:22.334Z,73.32
2022-10-11T16:42:23.847Z,73.66
2022-10-11T16:45:25.338Z,73.91
2022-10-11T16:48:26.852Z,74.38
2022-10-11T16:51:28.466Z,74.83
2022-10-11T16:54:30.549Z,74.50
2022-10-11T16:57:32.116Z,74.75
2022-10-11T17:00:33.706Z,74.07
2022-10-11T17:03:35.278Z,73.85
2022-10-11T17:06:36.908Z,73.41
2022-10-11T17:09:44.548Z,73.50
2022-10-11T17:12:50.031Z,73.22
2022-10-11T17:15:52.523Z,73.76
2022-10-11T17:18:54.302Z,74.04
2022-10-11T17:21:56.118Z,74.48
2022-10-11T17:24:57.851Z,74.64
2022-10-11T17:27:59.353Z,74.92
2022-10-11T17:31:01.128Z,75.20
2022-10-11T17:34:02.637Z,75.46
2022-10-11T17:37:04.166Z,75.57
2022-10-11T17:40:06.300Z,76.35
2022-10-11T17:43:07.812Z,76.83
2022-10-11T17:46:11.771Z,77.14
2022-10-11T17:49:13.506Z,77.66
2022-10-11T17:52:15.051Z,78.15
2022-10-11T17:55:16.666Z,79.00
2022-10-11T17:58:18.286Z,79.56
2022-10-11T18:01:21.359Z,79.61
2022-10-11T18:04:26.650Z,79.55
2022-10-11T18:07:28.249Z,79.57
2022-10-11T18:10:29.841Z,79.54
2022-10-11T18:13:31.397Z,79.70
2022-10-11T18:16:33.132Z,79.31
2022-10-11T18:19:34.857Z,80.23
2022-10-11T18:22:36.653Z,80.94
2022-10-11T18:25:38.441Z,81.69
2022-10-11T18:28:40.878Z,81.84
2022-10-11T18:31:42.630Z,82.30
2022-10-11T18:34:44.329Z,82.99
2022-10-11T18:37:45.978Z,82.95
2022-10-11T18:40:47.678Z,83.71
2022-10-11T18:43:50.118Z,83.64
2022-10-11T18:46:51.838Z,83.74
2022-10-11T18:49:53.443Z,84.12
2022-10-11T18:52:55.013Z,85.03
2022-10-11T18:56:00.391Z,85.42
2022-10-11T18:59:01.943Z,85.89
2022-10-11T19:02:04.909Z,86.26
2022-10-11T19:05:06.615Z,87.04
2022-10-11T19:08:08.286Z,87.40
2022-10-11T19:11:10.354Z,87.79
2022-10-11T19:14:14.670Z,88.35
2022-10-11T19:17:16.310Z,90.43
2022-10-11T19:20:17.879Z,91.01
2022-10-11T19:23:20.606Z,91.69
2022-10-11T19:26:22.304Z,92.24
2022-10-11T19:29:25.462Z,91.77
2022-10-11T19:32:27.029Z,90.90
2022-10-11T19:35:29.611Z,91.04
2022-10-11T19:38:31.837Z,91.41
2022-10-11T19:41:33.542Z,91.88
2022-10-11T19:44:38.705Z,92.12
2022-10-11T19:47:41.411Z,92.60
2022-10-11T19:50:42.974Z,92.77
2022-10-11T19:53:44.517Z,92.90
2022-10-11T19:56:46.160Z,93.18
2022-10-11T19:59:47.745Z,93.30
2022-10-11T20:02:49.341Z,93.88
2022-10-11T20:05:50.898Z,94.89
2022-10-11T20:09:10.387Z,95.25
2022-10-11T20:12:14.411Z,95.93
2022-10-11T20:15:16.035Z,95.81
2022-10-11T20:18:17.600Z,95.53
2022-10-11T20:21:21.685Z,95.42
2022-10-11T20:24:23.269Z,95.33
2022-10-11T20:27:24.843Z,95.65
2022-10-11T20:30:26.393Z,96.04
2022-10-11T20:33:31.898Z,95.82
2022-10-11T20:36:33.795Z,96.20
2022-10-11T20:39:35.346Z,96.09
2022-10-11T20:42:37.317Z,96.03
2022-10-11T20:45:38.881Z,95.81
2022-10-11T20:48:40.739Z,95.48
2022-10-11T20:51:42.437Z,95.56
2022-10-11T20:54:44.007Z,95.63
2022-10-11T20:57:45.589Z,95.77
2022-10-11T21:00:47.593Z,95.69
2022-10-11T21:03:49.193Z,95.73
2022-10-11T21:06:50.744Z,95.70
2022-10-11T21:09:52.446Z,95.59
2022-10-11T21:12:55.018Z,95.34
2022-10-11T21:15:56.687Z,94.97
2022-10-11T21:18:58.648Z,95.53
2022-10-11T21:22:00.358Z,95.48
2022-10-11T21:25:01.886Z,95.96
2022-10-11T21:28:04.016Z,96.26
2022-10-11T21:31:05.644Z,96.23
2022-10-11T21:34:07.535Z,96.35
2022-10-11T21:37:09.077Z,95.98
2022-10-11T21:40:10.700Z,95.61
2022-10-11T21:43:12.245Z,95.67
2022-10-11T21:46:16.906Z,95.90
2022-10-11T21:49:18.640Z,95.70
2022-10-11T21:52:20.306Z,95.63
2022-10-11T21:55:21.869Z,95.35
2022-10-11T21:58:23.474Z,94.68
2022-10-11T22:01:25.286Z,94.39
2022-10-11T22:04:26.899Z,93.95
2022-10-11T22:07:28.478Z,94.00
2022-10-11T22:10:30.109Z,93.96
2022-10-11T22:13:32.782Z,93.65
2022-10-11T22:16:34.410Z,93.44
2022-10-11T22:19:35.951Z,93.47
2022-10-11T22:22:37.887Z,93.77
2022-10-11T22:25:39.758Z,93.80
2022-10-11T22:28:41.733Z,94.55
2022-10-11T22:31:43.536Z,94.97
2022-10-11T22:34:45.104Z,95.10
2022-10-11T22:37:46.739Z,94.80
2022-10-11T22:40:48.590Z,94.46
2022-10-11T22:43:50.138Z,94.19
2022-10-11T22:46:51.790Z,93.84
2022-10-11T22:49:53.352Z,93.09
2022-10-11T22:52:54.910Z,92.73
2022-10-11T22:55:56.532Z,92.16
2022-10-11T22:58:58.454Z,91.72
2022-10-11T23:02:00.006Z,91.65
2022-10-11T23:05:01.631Z,91.49
2022-10-11T23:08:03.206Z,91.30
2022-10-11T23:11:05.717Z,91.58
2022-10-11T23:14:07.293Z,92.38
2022-10-11T23:17:08.914Z,92.63
2022-10-11T23:20:10.772Z,92.90
2022-10-11T23:23:12.506Z,93.26
2022-10-11T23:26:15.375Z,93.71
2022-10-11T23:29:16.954Z,93.78
2022-10-11T23:32:18.500Z,93.69
2022-10-11T23:35:20.059Z,94.31
2022-10-11T23:38:21.621Z,94.38
2022-10-11T23:41:23.728Z,95.28
2022-10-11T23:44:25.314Z,95.67
2022-10-11T23:47:26.958Z,97.49
2022-10-11T23:50:28.501Z,95.95
2022-10-11T23:53:30.049Z,96.31
2022-10-11T23:56:31.665Z,96.02
2022-10-11T23:59:33.358Z,94.62
